Time;durP1;ratioP1;P1;durP2;ratioP2;P2;SDS_P1;SDS_P2;PMS_P1;PMS_P2;Temp;Humidity;BMP_temperature;BMP_pressure;BME280_temperature;BME280_humidity;BME280_pressure;Samples;Min_cycle;Max_cycle;Signal;HPM_P1;HPM_P2
2022/04/16 18:00:17;;;;;;;1.90;1.67;;;;;;;16.51;40.06;94213.13;2614959;54;20468;-77
2022/04/16 18:02:58;;;;;;;2.00;1.90;;;;;;;15.48;41.53;94141.97;2615587;54;20409;-83
2022/04/16 18:05:35;;;;;;;2.27;1.87;;;;;;;16.38;42.37;94285.25;2619679;46;20683;-83
2022/04/16 18:08:25;;;;;;;1.47;1.37;;;;;;;14.95;43.46;94192.25;2616851;54;20168;-84
2022/04/16 18:11:07;;;;;;;1.17;1.17;;;;;;;14.33;44.04;94121.13;2615689;47;20165;-85
2022/04/16 18:13:37;;;;;;;3.67;1.77;;;;;;;14.11;44.56;94156.50;2614624;54;20156;-85
2022/04/16 18:16:11;;;;;;;2.00;1.27;;;;;;;14.92;45.52;94328.38;2615705;46;20179;-85
2022/04/16 18:18:40;;;;;;;1.23;1.23;;;;;;;14.77;45.52;94283.28;2615710;46;20165;-84
2022/04/16 18:21:10;;;;;;;2.67;1.37;;;;;;;14.63;45.50;94283.88;2616189;39;20750;-84
2022/04/16 18:23:57;;;;;;;1.13;1.10;;;;;;;13.75;46.17;94202.34;2615462;39;20591;-82
2022/04/16 18:26:27;;;;;;;2.35;2.15;;;;;;;14.75;45.68;94275.47;2613710;47;20404;-81
2022/04/16 18:29:06;;;;;;;2.13;1.93;;;;;;;14.16;46.15;94242.72;2615585;54;20149;-81
2022/04/16 18:31:42;;;;;;;2.03;0.73;;;;;;;13.98;46.26;94214.00;2615507;54;20795;-83
2022/04/16 18:34:25;;;;;;;0.57;0.57;;;;;;;14.45;46.53;94335.69;2614813;54;20192;-84
2022/04/16 18:36:54;;;;;;;1.97;1.87;;;;;;;14.43;46.59;94334.94;2615565;46;20156;-82
2022/04/16 18:39:24;;;;;;;1.80;1.70;;;;;;;14.03;46.98;94307.34;2615951;47;20173;-81
2022/04/16 18:41:53;;;;;;;1.20;1.20;;;;;;;14.21;47.34;94326.81;2615860;39;20587;-84
2022/04/16 18:44:21;;;;;;;1.67;1.60;;;;;;;14.61;46.63;94340.16;2616897;54;20156;-82
2022/04/16 18:47:03;;;;;;;;;;;;;;;;;;;;;
2022/04/16 18:49:33;;;;;;;1.27;1.27;;;;;;;14.76;46.20;94348.16;2617231;47;20160;-83
2022/04/16 18:52:04;;;;;;;1.77;1.70;;;;;;;14.66;46.18;94327.38;2617309;54;20176;-83
2022/04/16 18:54:34;;;;;;;2.30;2.10;;;;;;;14.67;46.37;94328.81;2616231;54;20169;-83
2022/04/16 18:57:15;;;;;;;2.37;2.27;;;;;;;14.83;46.39;94340.38;2615874;47;20157;-82
2022/04/16 18:59:48;;;;;;;3.60;2.17;;;;;;;15.12;45.36;94350.69;2616184;39;20550;-84
2022/04/16 19:07:57;;;;;;;2.80;2.53;;;;;;;14.55;46.59;94295.91;2614747;47;20165;-84
2022/04/16 19:10:26;;;;;;;2.73;2.57;;;;;;;14.83;46.79;94335.41;2615454;47;20152;-83
2022/04/16 19:13:11;;;;;;;2.73;2.60;;;;;;;14.56;46.09;94294.50;2617747;54;20153;-84
2022/04/16 19:16:16;;;;;;;2.67;2.57;;;;;;;14.62;46.19;94282.44;2615910;54;20153;-82
2022/04/16 19:18:48;;;;;;;4.00;2.30;;;;;;;14.28;46.93;94305.53;2611599;47;20430;-83
2022/04/16 19:21:26;;;;;;;2.53;2.43;;;;;;;14.35;46.70;94292.09;2611414;54;20157;-82
2022/04/16 19:23:58;;;;;;;4.73;2.10;;;;;;;13.92;47.63;94296.50;2612111;54;20159;-82
2022/04/16 19:26:40;;;;;;;;;;;;;;;;;;;;;
2022/04/16 19:29:09;;;;;;;2.27;2.17;;;;;;;14.70;47.04;94324.56;2618766;54;20161;-82
2022/04/16 19:31:38;;;;;;;3.58;3.03;;;;;;;14.99;46.58;94331.28;2615422;54;20407;-84
2022/04/16 19:34:10;;;;;;;3.07;2.23;;;;;;;14.83;46.66;94329.72;2615398;39;20827;-84
2022/04/16 19:36:50;;;;;;;2.63;2.43;;;;;;;14.80;46.04;94322.53;2612830;47;20304;-83
2022/04/16 19:39:23;;;;;;;2.20;2.10;;;;;;;14.68;45.60;94313.13;2615471;47;20228;-84
2022/04/16 19:41:54;;;;;;;2.53;2.43;;;;;;;14.63;46.00;94281.00;2614949;54;20316;-83
2022/04/16 19:44:38;;;;;;;1.33;1.33;;;;;;;14.06;46.18;94249.00;2615897;54;20159;-84
2022/04/16 19:47:07;;;;;;;2.57;2.47;;;;;;;14.15;46.77;94247.69;2614331;54;20161;-85
2022/04/16 19:49:39;;;;;;;2.47;1.93;;;;;;;14.17;46.90;94284.03;2615924;54;20208;-85
2022/04/16 19:52:20;;;;;;;2.63;2.43;;;;;;;13.76;47.00;94211.59;2617281;54;20285;-84
2022/04/16 19:54:59;;;;;;;2.43;2.27;;;;;;;14.67;47.95;94308.84;2617910;47;20164;-85
2022/04/16 19:57:39;;;;;;;2.27;2.17;;;;;;;14.40;47.24;94267.94;2615733;54;20164;-83
2022/04/16 20:00:10;;;;;;;2.47;2.27;;;;;;;14.64;46.43;94298.84;2614127;54;20241;-81
2022/04/16 20:02:42;;;;;;;2.40;2.20;;;;;;;13.59;47.51;94187.19;2614632;54;20165;-83
2022/04/16 20:05:18;;;;;;;2.73;2.50;;;;;;;14.11;47.55;94261.16;2614609;39;20548;-82
2022/04/16 20:10:42;;;;;;;3.90;2.77;;;;;;;14.45;46.49;94269.44;2614539;54;20172;-85
2022/04/16 20:11:20;;;;;;;;;;;;;;;;;;;;;
2022/04/16 20:13:55;;;;;;;2.27;1.53;;;;;;;13.75;46.19;94235.78;2612848;54;20181;-83
2022/04/16 20:16:25;;;;;;;1.90;1.80;;;;;;;14.05;46.23;94295.97;2615131;47;20164;-83
2022/04/16 20:18:54;;;;;;;1.70;1.60;;;;;;;13.11;47.37;94202.13;2614225;54;20165;-83
2022/04/16 20:21:30;;;;;;;1.37;1.37;;;;;;;14.30;46.54;94345.44;2615354;47;20173;-83
2022/04/16 20:24:02;;;;;;;1.80;1.30;;;;;;;14.32;45.72;94319.81;2615581;54;20145;-83
2022/04/16 20:26:31;;;;;;;2.60;2.40;;;;;;;14.49;46.09;94315.03;2620125;54;20161;-81
2022/04/16 20:29:00;;;;;;;1.73;1.53;;;;;;;14.80;45.88;94347.47;2616432;47;20173;-83
2022/04/16 20:31:29;;;;;;;1.60;1.53;;;;;;;14.72;45.15;94339.56;2616045;54;20161;-83
2022/04/16 20:33:58;;;;;;;1.50;1.40;;;;;;;14.41;46.07;94324.22;2615388;54;20168;-83
2022/04/16 20:36:32;;;;;;;1.63;1.60;;;;;;;14.08;46.04;94320.19;2615163;47;20252;-83
2022/04/16 20:39:01;;;;;;;2.67;1.70;;;;;;;14.05;47.40;94323.72;2615232;54;20159;-82
2022/04/16 20:46:55;;;;;;;2.00;1.90;;;;;;;13.88;47.96;94351.25;2616772;39;20659;-84
2022/04/16 20:49:24;;;;;;;1.60;1.60;;;;;;;13.64;46.97;94311.03;2616310;47;20164;-83
2022/04/16 20:54:54;;;;;;;1.17;1.17;;;;;;;13.50;47.73;94345.69;2616107;46;20692;-82
2022/04/16 20:57:23;;;;;;;0.77;0.77;;;;;;;13.51;47.67;94347.13;2616053;54;20173;-83
2022/04/16 20:59:55;;;;;;;1.70;1.57;;;;;;;13.60;47.87;94342.97;2615251;47;20218;-83
2022/04/16 21:02:23;;;;;;;1.10;1.10;;;;;;;13.80;47.24;94348.28;2614993;47;20173;-84
2022/04/16 21:04:55;;;;;;;2.23;1.40;;;;;;;13.99;46.38;94332.16;2616622;39;20585;-84
2022/04/16 21:07:30;;;;;;;1.40;1.40;;;;;;;14.26;46.16;94353.91;2616346;47;20169;-84
2022/04/16 21:10:08;;;;;;;1.77;1.47;;;;;;;14.66;45.54;94355.88;2615094;54;20207;-83
2022/04/16 21:12:40;;;;;;;1.20;1.20;;;;;;;14.90;44.58;94356.13;2615060;54;20243;-84
2022/04/16 21:15:16;;;;;;;1.92;1.83;;;;;;;14.41;45.01;94358.41;2615539;54;20411;-82
2022/04/16 21:17:51;;;;;;;1.43;1.27;;;;;;;14.27;45.73;94355.34;2615806;47;20629;-84
2022/04/16 21:20:21;;;;;;;2.10;2.00;;;;;;;14.17;46.18;94352.38;2615132;47;20165;-83
2022/04/16 21:22:54;;;;;;;1.43;1.10;;;;;;;13.96;46.51;94362.72;2616774;54;20240;-83
2022/04/16 21:25:32;;;;;;;1.52;1.52;;;;;;;13.90;47.37;94311.41;2616666;54;20388;-83
2022/04/16 21:28:01;;;;;;;1.50;1.40;;;;;;;14.06;45.65;94339.41;2622306;47;20180;-82
2022/04/16 21:30:44;;;;;;;0.80;0.80;;;;;;;13.80;46.56;94365.34;2621524;47;20153;-82
2022/04/16 21:33:16;;;;;;;1.80;1.70;;;;;;;13.71;47.43;94358.81;2615435;54;20176;-83
2022/04/16 21:35:52;;;;;;;0.60;0.60;;;;;;;13.55;46.92;94346.44;2615556;47;20192;-83
2022/04/16 21:38:52;;;;;;;1.37;1.27;;;;;;;12.47;48.08;94191.09;2615854;47;20664;-83
2022/04/16 21:41:25;;;;;;;4.53;1.33;;;;;;;13.37;47.63;94358.97;2617517;54;20161;-83
2022/04/16 21:43:57;;;;;;;1.67;1.60;;;;;;;12.97;48.75;94270.84;2615115;54;20177;-82
2022/04/16 21:46:40;;;;;;;1.40;1.30;;;;;;;12.71;48.20;94225.59;2615696;47;20161;-83
2022/04/16 21:49:13;;;;;;;1.43;1.40;;;;;;;13.95;47.85;94352.75;2620197;54;20145;-82
2022/04/16 21:51:57;;;;;;;3.17;1.70;;;;;;;13.43;47.85;94270.16;2614904;54;20271;-75
2022/04/16 21:54:44;;;;;;;0.90;0.90;;;;;;;14.40;46.97;94359.81;2614962;47;20184;-84
2022/04/16 21:57:16;;;;;;;2.00;1.80;;;;;;;13.40;47.50;94266.56;2615778;39;20663;-82
2022/04/16 21:59:47;;;;;;;3.10;1.30;;;;;;;14.20;47.46;94362.38;2615748;54;20191;-82
2022/04/16 22:04:59;;;;;;;1.87;1.77;;;;;;;13.88;47.41;94351.25;2615115;46;20217;-81
2022/04/16 22:10:20;;;;;;;2.53;1.90;;;;;;;13.11;49.00;94302.34;2616037;47;20169;-83
2022/04/16 22:12:58;;;;;;;1.63;1.63;;;;;;;13.08;49.63;94329.31;2616568;54;20247;-83
2022/04/16 22:15:35;;;;;;;2.07;1.97;;;;;;;12.48;49.50;94238.00;2617475;54;20672;-82
2022/04/16 22:18:05;;;;;;;1.57;1.47;;;;;;;13.35;50.02;94350.41;2618863;47;20228;-83
2022/04/16 22:20:35;;;;;;;1.73;1.63;;;;;;;12.66;49.63;94238.31;2616929;54;20176;-83
2022/04/16 22:23:04;;;;;;;2.70;2.60;;;;;;;13.20;49.63;94294.69;2615927;54;20153;-83
2022/04/16 22:25:37;;;;;;;1.43;1.40;;;;;;;13.34;49.45;94305.59;2616805;54;20675;-83
2022/04/16 22:28:16;;;;;;;;;;;;;;;;;;;;;
2022/04/16 22:30:47;;;;;;;3.20;2.17;;;;;;;13.19;50.19;94312.44;2619762;47;20164;-83
2022/04/16 22:33:16;;;;;;;2.47;2.37;;;;;;;12.84;50.78;94291.22;2615641;54;20153;-83
2022/04/16 22:35:44;;;;;;;1.77;1.70;;;;;;;13.09;50.46;94304.44;2615795;47;20196;-83
2022/04/16 22:41:04;;;;;;;2.60;2.37;;;;;;;13.18;50.36;94291.09;2616064;54;20148;-83
2022/04/16 22:43:34;;;;;;;3.60;2.57;;;;;;;12.82;51.17;94289.03;2616616;54;20295;-83
2022/04/16 22:46:04;;;;;;;1.50;1.50;;;;;;;13.10;51.55;94322.94;2616971;39;20616;-83
2022/04/16 22:48:33;;;;;;;2.03;1.93;;;;;;;12.85;51.91;94313.22;2616359;54;20204;-83
2022/04/16 22:51:03;;;;;;;2.00;1.90;;;;;;;13.09;51.78;94325.06;2615346;47;20156;-83
2022/04/16 22:53:42;;;;;;;2.00;1.90;;;;;;;13.15;51.55;94318.78;2618770;47;20169;-83
2022/04/16 22:56:15;;;;;;;2.93;2.77;;;;;;;12.81;52.36;94311.06;2615828;54;20153;-83
2022/04/16 22:58:43;;;;;;;1.97;1.87;;;;;;;13.16;51.99;94320.22;2616166;54;20189;-83
2022/04/16 23:01:12;;;;;;;2.10;1.90;;;;;;;13.35;51.14;94318.41;2615865;47;20177;-83
2022/04/16 23:03:41;;;;;;;2.63;2.43;;;;;;;12.98;51.35;94280.09;2616656;54;20156;-82
2022/04/16 23:06:11;;;;;;;2.00;1.90;;;;;;;12.75;52.11;94293.88;2615736;54;20168;-82
2022/04/16 23:08:43;;;;;;;2.27;2.07;;;;;;;12.79;52.50;94311.03;2616063;47;20178;-82
2022/04/16 23:11:16;;;;;;;2.07;1.80;;;;;;;12.91;52.14;94301.25;2617859;51;20275;-82
2022/04/16 23:13:44;;;;;;;1.50;1.50;;;;;;;13.07;52.08;94336.41;2619571;54;20160;-83
2022/04/16 23:19:02;;;;;;;2.93;2.27;;;;;;;12.57;53.48;94327.66;2617358;47;20648;-82
2022/04/16 23:21:30;;;;;;;2.10;2.00;;;;;;;13.00;52.84;94328.41;2616645;54;20165;-82
2022/04/16 23:24:00;;;;;;;1.97;1.87;;;;;;;12.75;52.89;94333.66;2617295;54;20173;-82
2022/04/16 23:26:31;;;;;;;2.63;2.43;;;;;;;12.53;53.64;94333.25;2616970;54;20176;-82
2022/04/16 23:29:01;;;;;;;1.57;1.47;;;;;;;12.03;53.59;94262.66;2615956;54;20153;-83
2022/04/16 23:31:30;;;;;;;2.10;2.00;;;;;;;12.60;53.33;94326.28;2616152;47;20161;-83
2022/04/16 23:33:58;;;;;;;1.03;1.03;;;;;;;12.44;52.96;94280.50;2616240;54;20153;-82
2022/04/16 23:36:31;;;;;;;1.17;1.17;;;;;;;12.61;53.14;94319.19;2616679;54;20680;-82
2022/04/16 23:39:09;;;;;;;2.10;2.00;;;;;;;12.89;52.47;94316.16;2617392;54;20173;-83
2022/04/16 23:41:41;;;;;;;2.23;2.00;;;;;;;12.65;53.28;94327.06;2616389;47;20300;-82
2022/04/16 23:47:00;;;;;;;1.80;1.67;;;;;;;12.88;52.75;94302.63;2615665;54;20148;-83
2022/04/16 23:49:29;;;;;;;2.60;2.40;;;;;;;12.74;53.03;94306.66;2619947;54;20163;-83
2022/04/16 23:52:02;;;;;;;1.57;1.57;;;;;;;12.77;52.83;94310.97;2621033;47;20157;-82
2022/04/16 23:54:31;;;;;;;1.67;1.57;;;;;;;12.82;52.90;94300.41;2622467;47;20172;-83
2022/04/16 23:57:03;;;;;;;3.70;2.27;;;;;;;12.47;54.16;94301.88;2621781;54;20224;-83
2022/04/16 23:59:42;;;;;;;1.60;1.50;;;;;;;12.45;53.79;94299.72;2621297;54;20192;-83
